Latest Weather Observations for Cape Moreton

IDQ60901

Issued at 10:42 pm EST Sunday 24 July 2016 (issued every 10 minutes, with the page automatically refreshed every 10 minutes)

About weather observations | Map of Brisbane area stations | Latest observations for Brisbane area | Other Formats
Station Details ID: 040043 Name: CAPE MORETON LIGHTHOUSE Lat: -27.03 Lon: 153.47 Height: 99.9 m
Data from the previous 72 hours. | See also: Recent months at Cape Moreton
Date/Time
EST
Temp
°C
App
Temp
°C
Dew
Point
°C
Rel
Hum
%
Delta-T
°C
Wind Press
QNH
hPa
Press
MSL
hPa
Rain since
9am
mm
Dir  Spd
km/h
Gust
km/h
Spd
kts
Gust
kts
24/10:30pm 17.9 15.4 11.2 65 3.6 NW 15 20 8 11 1015.6 1015.4 0.0
24/10:00pm 18.1 15.2 11.0 63 3.9 NW 17 20 9 11 1015.5 1015.3 0.0
24/09:30pm 17.8 14.9 10.9 64 3.7 NNW 17 20 9 11 1015.5 1015.3 0.0
24/09:00pm 17.2 15.2 11.5 69 3.1 NNW 13 15 7 8 1015.3 1015.1 0.0
24/08:30pm 17.0 14.8 10.8 67 3.3 WNW 13 15 7 8 1015.5 1015.3 0.0
24/08:00pm 17.4 15.1 10.5 64 3.7 NW 13 17 7 9 1015.4 1015.2 0.0
24/07:30pm 17.7 15.6 11.0 65 3.6 NNW 13 13 7 7 1015.1 1014.9 0.0
24/07:00pm 17.7 15.1 10.6 63 3.8 N 15 19 8 10 1014.9 1014.7 0.0
24/06:30pm 17.3 15.5 10.7 65 3.6 N 11 15 6 8 1014.4 1014.2 0.0
24/06:00pm 17.3 16.7 11.6 69 3.1 NE 6 6 3 3 1014.3 1014.1 0.0
24/05:30pm 17.3 15.9 10.9 66 3.5 NNE 9 9 5 5 1013.9 1013.7 0.0
24/05:00pm 17.6 16.1 10.5 63 3.8 NNE 9 13 5 7 1013.6 1013.4 0.0
24/04:30pm 18.2 17.0 10.3 60 4.2 ENE 7 9 4 5 1013.4 1013.2 0.0
24/04:00pm 18.8 18.3 10.6 59 4.4 ENE 4 9 2 5 1013.4 1013.2 0.0
24/03:30pm 18.8 18.0 9.8 56 4.8 E 4 7 2 4 1013.5 1013.3 0.0
24/03:00pm 19.7 19.7 9.9 53 5.3 CALM 0 7 0 4 1013.6 1013.4 0.0
24/02:30pm 19.8 18.6 9.7 52 5.4 ESE 6 7 3 4 1014.0 1013.8 0.0
24/02:00pm 20.3 19.5 9.5 50 5.8 ENE 4 7 2 4 1014.3 1014.1 0.0
24/01:30pm 20.1 18.7 9.4 50 5.7 SE 7 11 4 6 1014.7 1014.5 0.0
24/01:00pm 20.3 18.2 9.8 51 5.6 SE 11 15 6 8 1014.8 1014.6 0.0
24/12:30pm 20.3 18.4 9.2 49 5.9 SE 9 13 5 7 1015.1 1014.9 0.0
24/12:00pm 20.5 18.1 8.8 47 6.2 SE 11 15 6 8 1015.6 1015.4 0.0
24/11:30am 20.2 17.1 7.2 43 6.7 SE 13 17 7 9 1016.2 1016.0 0.0
24/11:00am 20.9 18.3 7.9 43 6.8 ESE 11 15 6 8 1016.5 1016.3 0.0
24/10:30am 19.9 17.6 5.9 40 7.0 NE 7 13 4 7 1016.9 1016.8 0.0
24/10:00am 19.2 17.7 7.0 45 6.2 S 4 11 2 6 1017.1 1017.0 0.0
24/09:30am 18.9 17.5 5.4 41 6.6 NNE 2 6 1 3 1017.0 1016.9 0.0
24/09:00am 17.4 14.8 4.0 41 6.3 SSW 7 11 4 6 1017.0 1016.9 0.0
24/08:30am 16.0 12.8 5.3 49 5.1 SW 11 17 6 9 1016.8 1016.7 0.0
24/08:00am 15.2 11.5 4.6 49 5.0 SW 13 17 7 9 1016.8 1016.7 0.0
24/07:30am 15.2 12.1 3.7 46 5.3 SSW 9 13 5 7 1016.4 1016.2 0.0
24/07:00am 14.1 9.3 4.7 53 4.4 SW 19 24 10 13 1016.1 1015.9 0.0
24/06:30am 14.7 11.1 5.2 53 4.5 SSW 13 22 7 12 1015.6 1015.4 0.0
24/06:00am 14.5 10.9 4.8 52 4.5 SW 13 17 7 9 1015.2 1015.0 0.0
24/05:30am 15.0 11.3 4.4 49 4.9 SSW 13 20 7 11 1014.5 1014.3 0.0
24/05:00am 15.1 10.7 4.8 50 4.8 SW 17 24 9 13 1013.8 1013.6 0.0
24/04:30am 15.7 10.1 5.6 51 4.9 SW 24 32 13 17 1013.6 1013.4 0.0
24/04:00am 15.8 11.8 5.1 49 5.1 SW 15 24 8 13 1013.6 1013.4 0.0
24/03:30am 16.3 11.6 5.0 47 5.4 SW 19 30 10 16 1013.3 1013.1 0.0
24/03:00am 16.5 11.2 4.9 46 5.5 SW 22 43 12 23 1013.2 1013.0 0.0
24/02:40am 16.8 8.7 5.4 47 5.5 WSW 37 56 20 30 1012.7 1012.5 0.0
24/02:30am 16.8 8.7 5.4 47 5.5 SW 37 54 20 29 1012.7 1012.5 0.0
24/02:00am 17.3 9.7 5.6 46 5.7 SW 35 56 19 30 1012.8 1012.6 0.0
24/01:40am 17.2 10.2 6.1 48 5.5 SW 32 50 17 27 1012.8 1012.6 0.0
24/01:30am 17.3 10.1 5.9 47 5.6 WSW 33 50 18 27 1012.7 1012.5 0.0
24/01:00am 17.3 11.5 6.2 48 5.5 WSW 26 35 14 19 1013.2 1013.0 0.0
24/12:30am 17.7 13.3 6.6 48 5.5 SW 19 28 10 15 1013.4 1013.2 0.0
24/12:00am 17.9 13.8 6.4 47 5.7 SW 17 26 9 14 1013.5 1013.3 0.0
 
Date/Time
EST
Temp
°C
App
Temp
°C
Dew
Point
°C
Rel
Hum
%
Delta-T
°C
Wind Press
QNH
hPa
Press
MSL
hPa
Rain since
9am
mm
Dir  Spd
km/h
Gust
km/h
Spd
kts
Gust
kts
23/11:30pm 18.0 13.7 6.8 48 5.6 SW 19 33 10 18 1013.4 1013.2 0.0
23/11:00pm 18.5 14.6 8.5 52 5.2 SW 19 24 10 13 1013.3 1013.1 0.0
23/10:30pm 19.2 15.0 8.2 49 5.7 SW 20 30 11 16 1012.9 1012.7 0.0
23/10:00pm 19.8 15.1 9.1 50 5.7 SW 24 39 13 21 1012.8 1012.6 0.0
23/09:30pm 20.3 17.0 11.0 55 5.1 SW 19 24 10 13 1012.7 1012.5 0.0
23/09:00pm 21.9 18.4 10.1 47 6.4 WSW 19 26 10 14 1012.1 1012.0 0.0
23/08:30pm 23.4 16.9 9.0 40 7.8 WSW 33 46 18 25 1011.5 1011.4 0.0
23/08:05pm 23.5 17.5 10.2 43 7.3 WSW 32 57 17 31 1011.3 1011.2 0.0
23/08:00pm 23.3 18.2 10.7 45 7.0 WSW 28 43 15 23 1011.2 1011.1 0.0
23/07:30pm 23.7 18.1 11.4 46 6.9 WSW 32 48 17 26 1011.2 1011.1 0.0
23/07:00pm 24.1 19.6 12.7 49 6.6 WSW 28 43 15 23 1010.5 1010.4 0.0
23/06:30pm 23.1 20.5 14.9 60 4.9 W 22 30 12 16 1009.9 1009.8 0.0
23/06:00pm 22.0 21.3 17.4 75 2.8 WNW 17 22 9 12 1009.8 1009.7 0.0
23/05:30pm 23.0 21.2 16.1 65 4.2 W 20 32 11 17 1009.4 1009.3 0.0
23/05:00pm 21.5 22.5 19.4 88 1.3 NW 13 22 7 12 1009.4 1009.3 0.0
23/04:30pm 21.9 22.7 19.8 88 1.3 NNW 15 24 8 13 1009.2 1009.1 0.0
23/04:00pm 23.4 23.5 18.3 73 3.2 NNW 15 22 8 12 1008.8 1008.7 0.0
23/03:30pm 22.7 23.0 19.7 83 1.9 NNW 17 20 9 11 1008.6 1008.5 0.0
23/03:00pm 23.3 23.8 19.2 78 2.6 NW 15 20 8 11 1008.4 1008.3 0.0
23/02:30pm 23.4 23.8 19.8 80 2.3 NW 17 24 9 13 1008.4 1008.3 0.0
23/02:00pm 23.0 22.3 19.6 81 2.2 NW 22 30 12 16 1008.1 1007.9 0.0
23/01:30pm 23.0 23.0 19.8 82 2.1 NNW 19 30 10 16 1008.2 1008.1 0.0
23/01:00pm 23.2 22.6 19.8 81 2.2 NNW 22 33 12 18 1008.3 1008.2 0.0
23/12:30pm 23.1 21.6 19.5 80 2.3 NNW 26 39 14 21 1008.3 1008.2 0.0
23/12:00pm 23.0 21.0 19.2 79 2.4 NNW 28 39 15 21 1008.8 1008.7 0.0
23/11:30am 22.3 20.5 19.5 84 1.8 NW 28 37 15 20 1009.2 1009.1 0.0
23/11:00am 22.1 19.7 19.1 83 1.9 NW 30 39 16 21 1009.6 1009.5 0.0
23/10:30am 21.8 19.3 18.8 83 1.9 NW 30 39 16 21 1010.1 1010.0 0.0
23/10:00am 21.8 20.0 18.8 83 1.9 NW 26 43 14 23 1010.4 1010.3 0.0
23/09:30am 21.5 19.4 18.9 85 1.6 NW 28 37 15 20 1010.9 1010.8 0.0
23/09:00am 21.0 18.4 18.6 86 1.5 WNW 30 44 16 24 1011.0 1010.9 0.0
23/08:30am 20.8 18.2 18.7 88 1.3 NW 30 39 16 21 1011.0 1010.9 0.0
23/08:00am 20.5 18.0 18.8 90 1.1 NW 30 39 16 21 1010.8 1010.7 0.0
23/07:30am 20.0 18.2 19.5 97 0.3 NW 28 37 15 20 1010.7 1010.6 0.0
23/07:00am 19.8 17.8 19.1 96 0.4 NW 28 35 15 19 1010.6 1010.5 0.0
23/06:30am 19.7 16.9 19.0 96 0.4 NW 32 39 17 21 1010.4 1010.3 0.0
23/06:00am 19.8 18.2 19.1 96 0.4 NW 26 35 14 19 1010.4 1010.3 0.0
23/05:30am 19.7 18.0 19.0 96 0.4 NW 26 35 14 19 1010.1 1010.0 0.0
23/05:00am 19.9 17.9 19.1 95 0.5 NW 28 41 15 22 1010.0 1009.9 0.0
23/04:30am 19.6 16.7 18.8 95 0.5 NW 32 41 17 22 1009.8 1009.7 0.0
23/04:00am 19.4 16.9 18.9 97 0.3 NW 30 37 16 20 1009.9 1009.8 0.0
23/03:30am 19.4 16.4 18.6 95 0.5 NW 32 43 17 23 1009.9 1009.8 0.0
23/03:00am 19.5 16.8 18.5 94 0.6 NW 30 37 16 20 1010.4 1010.3 0.0
23/02:30am 19.6 17.4 18.6 94 0.6 NW 28 39 15 21 1010.4 1010.3 0.0
23/02:00am 19.7 17.4 18.5 93 0.8 NW 28 39 15 21 1010.6 1010.5 0.0
23/01:30am 19.9 17.2 18.4 91 0.9 NW 30 39 16 21 1010.8 1010.7 0.0
23/01:00am 20.0 17.3 18.5 91 0.9 NW 30 43 16 23 1011.1 1011.0 0.0
23/12:30am 20.1 17.0 18.4 90 1.1 NW 32 41 17 22 1011.3 1011.2 0.0
23/12:00am 20.1 17.0 18.4 90 1.1 NW 32 43 17 23 1011.4 1011.3 0.0
 
Date/Time
EST
Temp
°C
App
Temp
°C
Dew
Point
°C
Rel
Hum
%
Delta-T
°C
Wind Press
QNH
hPa
Press
MSL
hPa
Rain since
9am
mm
Dir  Spd
km/h
Gust
km/h
Spd
kts
Gust
kts
22/11:30pm 20.0 17.4 18.7 92 0.8 NW 30 41 16 22 1011.7 1011.6 0.0
22/11:00pm 20.0 17.8 18.8 93 0.8 NW 28 37 15 20 1011.8 1011.7 0.0
22/10:30pm 19.8 17.3 18.8 94 0.6 NNW 30 41 16 22 1012.0 1011.9 0.0
22/10:00pm 20.0 17.4 18.7 92 0.8 NNW 30 41 16 22 1012.1 1012.0 0.0
22/09:30pm 20.3 17.3 18.6 90 1.1 NNW 32 46 17 25 1012.1 1012.0 0.0
22/09:00pm 20.4 17.4 18.7 90 1.1 NNW 32 46 17 25 1012.3 1012.2 0.0
22/08:30pm 20.6 18.7 19.4 93 0.8 NNW 28 41 15 22 1012.3 1012.2 0.0
22/08:00pm 20.9 18.5 19.9 94 0.6 NNW 32 41 17 22 1012.5 1012.4 0.0
22/07:30pm 21.0 17.9 19.7 92 0.8 N 35 44 19 24 1012.5 1012.4 0.0
22/07:00pm 21.1 17.5 19.4 90 1.1 N 37 44 20 24 1012.3 1012.2 0.0
22/06:30pm 21.0 18.5 19.8 93 0.8 N 32 43 17 23 1012.1 1012.0 0.0
22/06:00pm 20.8 18.9 20.1 96 0.5 N 30 37 16 20 1011.8 1011.7 0.0
22/05:30pm 20.7 19.6 20.2 97 0.3 N 26 33 14 18 1011.7 1011.6 0.0
22/05:00pm 20.7 19.9 20.0 96 0.4 N 24 32 13 17 1011.6 1011.5 0.0
22/04:30pm 21.1 21.4 19.7 92 0.9 N 17 26 9 14 1011.6 1011.5 0.0
22/04:00pm 21.5 21.8 19.6 89 1.2 N 17 24 9 13 1011.7 1011.6 0.0
22/03:30pm 21.6 21.9 19.7 89 1.2 N 17 24 9 13 1011.8 1011.7 0.0
22/03:00pm 21.9 22.2 19.6 87 1.5 N 17 20 9 11 1011.9 1011.8 0.0
22/02:30pm 21.8 22.1 19.7 88 1.3 N 17 20 9 11 1012.0 1011.9 0.0
22/02:00pm 21.7 22.5 19.1 85 1.7 NNW 13 17 7 9 1012.4 1012.3 0.0
22/01:30pm 21.6 22.3 18.8 84 1.8 NNW 13 17 7 9 1012.9 1012.7 0.0
22/01:00pm 21.7 22.9 19.8 89 1.2 NNW 13 17 7 9 1013.4 1013.2 0.0
22/12:30pm 21.0 22.0 19.5 91 1.0 NW 13 17 7 9 1013.7 1013.5 0.0
22/12:00pm 20.6 21.4 19.1 91 0.9 NW 13 17 7 9 1014.4 1014.2 0.0
22/11:30am 20.8 21.1 18.0 84 1.7 NW 13 20 7 11 1015.2 1015.0 0.0
22/11:00am 21.9 21.4 17.7 77 2.6 WNW 17 22 9 12 1015.6 1015.4 0.0
22/10:30am 20.9 20.1 17.9 83 1.9 W 19 24 10 13 1016.0 1015.8 0.0
22/10:00am 19.9 19.8 19.9 100 0.0 W 20 24 11 13 1016.2 1016.0 0.0
22/09:30am 18.8 18.2 18.8 100 0.0 W 20 24 11 13 1016.3 1016.1 0.0
22/09:00am 18.4 17.8 18.4 100 0.0 W 19 24 10 13 1016.5 1016.3 0.0
22/08:30am 18.3 18.4 18.3 100 0.0 W 15 20 8 11 1016.3 1016.1 0.0
22/08:00am 17.7 17.9 17.7 100 0.0 WSW 13 17 7 9 1016.2 1016.0 0.0
22/07:30am 17.5 16.9 17.5 100 0.0 WSW 17 19 9 10 1016.0 1015.8 0.0
22/07:00am 17.5 16.5 17.5 100 0.0 WSW 19 22 10 12 1016.0 1015.8 0.0
22/06:30am 17.7 17.2 17.7 100 0.0 W 17 22 9 12 1015.7 1015.5 0.0
22/06:00am 17.5 16.9 17.5 100 0.0 W 17 22 9 12 1015.3 1015.1 0.0
22/05:30am 17.5 16.9 17.5 100 0.0 WNW 17 20 9 11 1015.2 1015.0 0.0
22/05:00am 18.0 16.9 17.8 99 0.1 WNW 20 26 11 14 1015.1 1014.9 0.0
22/04:30am 18.4 18.1 18.2 99 0.1 NW 17 20 9 11 1015.2 1015.0 0.0
22/04:00am 19.0 18.3 18.3 96 0.4 WNW 19 24 10 13 1015.3 1015.1 0.0
22/03:30am 19.3 19.0 18.3 94 0.6 NW 17 22 9 12 1015.5 1015.3 0.0
22/03:00am 19.4 19.0 18.1 92 0.8 NW 17 20 9 11 1015.7 1015.5 0.0
22/02:30am 19.4 19.0 18.1 92 0.8 NW 17 20 9 11 1015.9 1015.7 0.0
22/02:00am 19.5 19.9 18.2 92 0.8 NW 13 15 7 8 1016.3 1016.1 0.0
22/01:30am 19.5 20.2 18.0 91 0.9 NW 11 15 6 8 1016.6 1016.4 0.0
22/01:00am 19.7 18.8 18.2 91 0.9 NW 20 24 11 13 1016.7 1016.6 0.0
22/12:30am 19.5 18.5 18.0 91 0.9 NW 20 24 11 13 1016.7 1016.6 0.0
22/12:00am 19.6 18.1 17.7 89 1.2 NW 22 28 12 15 1016.6 1016.4 0.0
 
Date/Time
EST
Temp
°C
App
Temp
°C
Dew
Point
°C
Rel
Hum
%
Delta-T
°C
Wind Press
QNH
hPa
Press
MSL
hPa
Rain since
9am
mm
Dir  Spd
km/h
Gust
km/h
Spd
kts
Gust
kts
21/11:30pm 19.8 18.3 17.6 87 1.4 NNW 22 32 12 17 1016.6 1016.4 0.0
21/11:00pm 19.9 18.4 17.7 87 1.4 NNW 22 32 12 17 1016.6 1016.4 0.0

Latest Capital City Observations: Canberra | Sydney | Melbourne | Brisbane | Adelaide | Perth | Hobart | Darwin

Other Formats:

Comma delimited format used in spreadsheet applications
http://www.bom.gov.au/fwo/IDQ60901/IDQ60901.94594.axf

JavaScript Object Notation format (JSON) in row-major order
http://www.bom.gov.au/fwo/IDQ60901/IDQ60901.94594.json